Sunday, May 29, 2016
17:18 UTC
  |  Log In   |  Register Free
Airport Search:

Henry Post Aaf (Fort Sill) Airport
(KFSI)

Henry Post Aaf (Fort Sill) Airport Diagram
No Airport Diagram Available

FAA data valid effective Mar 31 2016 - May 26 2016 (unless otherwise noted).

 
 
 
 
 
 
 
 
 
 
 
 
 
 
Current Aviation Weather for KFSI

Weather Summary


The most recent METAR observation for FSI was updated at: 12:58 UTC
METAR for KFSI is not available. Closest METAR is for KLAW
KFSI  (most recent observation was updatred at 29:16 UTC)
291658Z AUTO 06004KT 10SM CLR 27/17 A3013 RMK AO2 SLP195 T02720167 $

KLAW  (5.0 nm NE)   (most recent observation was updated at 29:16 UTC)
291653Z AUTO VRB04KT 10SM CLR 28/14 A3013 RMK AO2 SLP191 T02830144 TSNO

KDUC  (24.4 nm NW)   (most recent observation was updated at 29:16 UTC)
291655Z AUTO 12003KT 10SM CLR 30/15 A3013 RMK AO2 TSNO

TAF for KFSI is not available.
KLAW  (5.0 nm NE)   (most recent observation was updatred at 29:13 UTC)
AMD 291302Z 2913/3012 VRB04KT P6SM SCT250 FM291600 17008KT P6SM SCT035 BKN250 TEMPO 2922/3002 6SM -TSRA BR BKN010CB FM300200 16007KT 6SM -TSRA BR BKN030CB TEMPO 3002/3006 2SM TSRA BR BKN010CB FM300800 16006KT P6SM OVC007


GlobalAir.com is loading additional information.
 Current Weather at FSI
79.0 F° (26.2 C°)

South winds at 3.5 mph
Pressure:
30.14 in
Humidity:
54%
Wind:
South at 3.5 mph
Dew Point:
61.2 F° (16.2 C°)
Visibility:
9.00 mi
FSI NOAA Radar




Find All Airport Services Find A Hotel Find A Rental Car Find A Golf Course Find A Restaurant $100 Hamburger



Airport Weather Forecast for KFSI

Translated METAR for KFSI (1658 UTC)
METAR:
KFSI 291658Z AUTO 06004KT 10SM CLR 27/17 A3013 RMK AO2 SLP195 T02720167 $
Conditions at:
KFSI (Henry Post Aaf (Fort Sill), OK) observed 1658 UTC 29 May 2016
Temperature:
27°C (80.6°F)
Dewpoint:
17°C (62.6°F) [RH = 54.3]
Pressure:
30.13 inches Hg (1020.3 mb)
pressure at sea level is 195 in Hg
Winds:
from the ENE (060 degrees) at 4.6 mph (4 knots: 2.1 m/s)
Visibility:
10 mile(s)
Ceiling:
at least 12,000 feet AGL
Clouds:
Clear below 12,000 feet AGL
Remarks:
site is un-manned
SOME DATA ABOVE MAY BE INACCURATE!!!
"$" is an indication the sensor requires maintenance
site is automated and HAS a precipitation sensor

Translated TAF for KLAW (Lawton-Fort Sill Rgnl, OK) (1302 UTC)
TAF text:
KLAW 291302Z 2913/3012 VRB04KT P6SM SCT250
Forecast period:
Sunday May 29 2016 13:00 UTC - Monday May 30 2016 12:00 UTC
Forecast type:
FROM: standard forecast or significant change
Winds:
variable wind direction at 4.6 mph (4 knots: 2.1 m/s)
Visibility:
6 or more mile(s) (9.7+ km)
Ceiling:
at least 12,000 feet AGL
Clouds:
Scattered Clouds at 25,000 feet AGL
Weather:
no significant weather observed at this time
TAF text:
FM291600 17008KT P6SM SCT035 BKN250
Forecast period:
Sunday May 29 2016 16:00 UTC - Monday May 30 2016 02:00 UTC
Forecast type:
FROM: standard forecast or significant change
Winds:
from the S (170 degrees) at 9.2 mph (8 knots: 4.1 m/s)
Visibility:
6 or more mile(s) (9.7+ km)
Ceiling:
25,000 feet AGL
Clouds:
Scattered Clouds at 3,500 feet AGL
Broken Cloud Cover at 25,000 feet AGL
Weather:
no significant weather observed at this time
TAF text:
2922/3002 6SM -TSRA BR BKN010CB
Forecast period:
Monday May 30 2016 22:00 UTC - Tuesday May 31 2016 02:00 UTC
Forecast type:
FROM: standard forecast or significant change
Winds:
Visibility:
6 mile(s) (9.7 km)
Ceiling:
Clouds:
Weather:
Light Thunderstorm Rain
TAF text:
FM300200 16007KT 6SM -TSRA BR BKN030CB
Forecast period:
Monday May 30 2016 02:00 UTC - Monday May 30 2016 08:00 UTC
Forecast type:
FROM: standard forecast or significant change
Winds:
from the SSE (160 degrees) at 8.1 mph (7 knots: 3.6 m/s)
Visibility:
6 mile(s) (9.7 km)
Ceiling:
Clouds:
Weather:
Light Thunderstorm Rain
TAF text:
3002/3006 2SM TSRA BR BKN010CB
Forecast period:
Tuesday May 31 2016 02:00 UTC - Tuesday May 31 2016 06:00 UTC
Forecast type:
FROM: standard forecast or significant change
Winds:
Visibility:
2 mile(s) (3.2 km)
Ceiling:
Clouds:
Weather:
Moderate Thunderstorm Rain
TAF text:
FM300800 16006KT P6SM OVC007
Forecast period:
Monday May 30 2016 08:00 UTC - Monday May 30 2016 12:00 UTC
Forecast type:
FROM: standard forecast or significant change
Winds:
from the SSE (160 degrees) at 6.9 mph (6 knots: 3.1 m/s)
Visibility:
6 or more mile(s) (9.7+ km)
Ceiling:
700 feet AGL
Clouds:
Overcast Skies at 700 feet AGL
Weather:
no significant weather observed at this time
FBO's on the Field
FBO Company Facility Photos Services Transportation Aviation Fuel Prices: Prices include tax
Catering Weather Repair Courtesy Rental Type 100LL JetA JetA+ MOGAS 8087
 
Add another FBO Facility Photos Catering Weather Repair Courtesy Rental Type 100LL JetA JetA+ MOGAS 8087
Services Transportation Aviation Fuel Prices: Prices include tax
There are no FBO's currently reporting fuel at FSI. List your FBO now


model-print
model-print
model-print
model-print